TimeCST,TemperatureF,Dew PointF,Humidity,Sea Level PressureIn,VisibilityMPH,Wind Direction,Wind SpeedMPH,Gust SpeedMPH,PrecipitationIn,Events,Conditions,WindDirDegrees,DateUTC
12:54 AM,42.1,37.9,85,30.23,10.0,WNW,4.6,-,N/A,,Clear,300,2013-11-07 06:54:00
1:54 AM,39.9,37.0,89,30.24,10.0,NW,8.1,-,N/A,,Clear,310,2013-11-07 07:54:00
2:54 AM,39.0,36.0,89,30.25,10.0,NW,8.1,-,N/A,,Clear,310,2013-11-07 08:54:00
3:54 AM,37.9,34.0,86,30.26,10.0,NW,6.9,-,N/A,,Clear,310,2013-11-07 09:54:00
4:54 AM,37.0,33.1,86,30.29,10.0,NW,8.1,-,N/A,,Clear,320,2013-11-07 10:54:00
5:54 AM,36.0,32.0,86,30.32,10.0,NW,5.8,-,N/A,,Clear,310,2013-11-07 11:54:00
6:54 AM,36.0,32.0,86,30.35,10.0,NW,5.8,-,N/A,,Clear,320,2013-11-07 12:54:00
7:54 AM,39.0,32.0,76,30.38,10.0,NW,4.6,-,N/A,,Clear,320,2013-11-07 13:54:00
8:54 AM,43.0,32.0,65,30.39,10.0,NW,5.8,-,N/A,,Clear,310,2013-11-07 14:54:00
9:54 AM,46.0,32.0,58,30.38,10.0,Variable,4.6,-,N/A,,Clear,0,2013-11-07 15:54:00
10:54 AM,48.9,30.0,48,30.37,10.0,WNW,5.8,-,N/A,,Clear,300,2013-11-07 16:54:00
11:54 AM,50.0,28.0,43,30.35,10.0,Calm,Calm,-,N/A,,Clear,0,2013-11-07 17:54:00
12:54 PM,51.1,26.1,38,30.33,10.0,Variable,4.6,-,N/A,,Clear,0,2013-11-07 18:54:00
1:54 PM,52.0,26.1,37,30.32,10.0,WSW,6.9,-,N/A,,Clear,240,2013-11-07 19:54:00
2:54 PM,51.1,25.0,36,30.31,10.0,West,8.1,-,N/A,,Clear,260,2013-11-07 20:54:00
3:54 PM,50.0,26.1,39,30.30,10.0,WSW,9.2,-,N/A,,Clear,240,2013-11-07 21:54:00
4:54 PM,44.1,28.9,55,30.30,10.0,WSW,3.5,-,N/A,,Clear,240,2013-11-07 22:54:00
5:54 PM,42.1,30.0,62,30.32,10.0,Calm,Calm,-,N/A,,Clear,0,2013-11-07 23:54:00
6:54 PM,41.0,32.0,70,30.32,10.0,Calm,Calm,-,N/A,,Scattered Clouds,0,2013-11-08 00:54:00
7:54 PM,42.1,32.0,67,30.32,10.0,Calm,Calm,-,N/A,,Scattered Clouds,0,2013-11-08 01:54:00
8:54 PM,42.1,33.1,70,30.33,7.0,Calm,Calm,-,N/A,,Mostly Cloudy,0,2013-11-08 02:54:00
9:54 PM,43.0,33.1,68,30.35,10.0,NW,3.5,-,N/A,,Partly Cloudy,310,2013-11-08 03:54:00
10:54 PM,39.0,32.0,76,30.35,6.0,Calm,Calm,-,N/A,,Haze,0,2013-11-08 04:54:00
11:54 PM,36.0,32.0,86,30.35,7.0,Calm,Calm,-,N/A,,Clear,0,2013-11-08 05:54:00